createdAt,value
2019-06-10T00:01:11.916Z,40.30
2019-06-10T00:06:15.633Z,39.60
2019-06-10T00:11:21.326Z,39.10
2019-06-10T00:16:24.583Z,38.60
2019-06-10T00:21:30.674Z,38.30
2019-06-10T00:26:33.696Z,38.30
2019-06-10T00:31:37.416Z,38.00
2019-06-10T00:36:41.464Z,37.80
2019-06-10T00:41:45.403Z,37.90
2019-06-10T00:46:51.412Z,38.00
2019-06-10T00:51:54.658Z,38.30
2019-06-10T00:57:00.550Z,38.60
2019-06-10T01:02:05.005Z,38.90
2019-06-10T01:07:11.292Z,39.10
2019-06-10T01:12:14.930Z,39.00
2019-06-10T01:17:21.187Z,39.20
2019-06-10T01:22:24.468Z,39.30
2019-06-10T01:27:28.181Z,39.40
2019-06-10T01:32:31.834Z,39.40
2019-06-10T01:37:35.533Z,39.50
2019-06-10T01:42:41.255Z,39.50
2019-06-10T01:47:44.603Z,39.40
2019-06-10T01:52:48.469Z,39.70
2019-06-10T01:57:52.111Z,39.60
2019-06-10T02:02:55.783Z,39.80
2019-06-10T02:08:00.592Z,40.00
2019-06-10T02:13:04.433Z,40.20
2019-06-10T02:18:10.738Z,40.20
2019-06-10T02:23:14.547Z,40.10
2019-06-10T02:28:19.731Z,40.30
2019-06-10T02:33:30.908Z,40.50
2019-06-10T02:38:37.920Z,41.00
2019-06-10T02:43:37.808Z,41.50
2019-06-10T02:48:43.614Z,42.30
2019-06-10T02:53:47.483Z,41.80
2019-06-10T02:58:53.459Z,41.90
2019-06-10T03:03:56.506Z,42.50
2019-06-10T03:09:03.438Z,43.70
2019-06-10T03:14:05.674Z,44.60
2019-06-10T03:19:09.302Z,46.00
2019-06-10T03:24:13.263Z,45.60
2019-06-10T03:29:17.077Z,45.70
2019-06-10T03:34:29.791Z,45.70
2019-06-10T03:39:28.413Z,46.70
2019-06-10T03:44:33.060Z,46.90
2019-06-10T03:49:49.060Z,46.30
2019-06-10T03:54:43.286Z,46.30
2019-06-10T03:59:47.317Z,46.40
2019-06-10T04:04:52.361Z,46.50
2019-06-10T04:09:56.484Z,46.60
2019-06-10T04:15:02.872Z,46.90
2019-06-10T04:20:11.686Z,47.10
2019-06-10T04:25:12.134Z,47.20
2019-06-10T04:30:16.698Z,47.40
2019-06-10T04:35:23.058Z,47.60
2019-06-10T04:40:27.531Z,47.70
2019-06-10T04:45:32.436Z,48.00
2019-06-10T04:50:42.567Z,48.40
2019-06-10T04:55:43.090Z,48.70
2019-06-10T05:00:46.996Z,49.40
2019-06-10T05:05:52.555Z,50.10
2019-06-10T05:10:56.083Z,49.80
2019-06-10T05:15:59.810Z,49.50
2019-06-10T05:21:03.480Z,49.40
2019-06-10T05:26:07.209Z,50.20
2019-06-10T05:31:12.869Z,50.70
2019-06-10T05:36:16.660Z,51.50
2019-06-10T05:41:24.188Z,51.80
2019-06-10T05:46:26.896Z,52.10
2019-06-10T05:51:33.397Z,52.70
2019-06-10T05:56:36.695Z,52.60
2019-06-10T06:01:42.872Z,52.50
2019-06-10T06:06:45.986Z,52.20
2019-06-10T06:11:52.215Z,52.00
2019-06-10T06:16:55.221Z,52.10
2019-06-10T06:21:59.005Z,53.10
2019-06-10T06:27:02.768Z,52.80
2019-06-10T06:32:06.512Z,53.20
2019-06-10T06:37:12.738Z,53.20
2019-06-10T06:42:16.166Z,52.90
2019-06-10T06:47:22.414Z,52.80
2019-06-10T06:52:46.994Z,52.60
2019-06-10T06:57:33.708Z,52.70
2019-06-10T07:02:37.563Z,53.00
2019-06-10T07:07:43.357Z,53.60
2019-06-10T07:12:47.415Z,53.50
2019-06-10T07:17:52.640Z,53.60
2019-06-10T07:22:56.501Z,53.30
2019-06-10T07:28:02.020Z,53.10
2019-06-10T07:33:05.680Z,52.90
2019-06-10T07:38:12.113Z,53.00
2019-06-10T07:43:15.259Z,52.90
2019-06-10T07:48:19.123Z,52.90
2019-06-10T07:53:22.886Z,53.10
2019-06-10T07:58:27.028Z,53.20
2019-06-10T08:03:33.416Z,53.30
2019-06-10T08:08:37.162Z,53.20
2019-06-10T08:13:45.621Z,53.00
2019-06-10T08:19:16.009Z,53.20
2019-06-10T08:23:54.211Z,53.10
2019-06-10T08:34:27.879Z,53.10
2019-06-10T08:39:33.471Z,53.00
2019-06-10T08:44:38.720Z,52.90
2019-06-10T08:49:45.865Z,53.30
2019-06-10T08:54:50.750Z,52.50
2019-06-10T08:59:54.121Z,52.60
2019-06-10T09:05:03.453Z,52.80
2019-06-10T09:10:06.342Z,53.20
2019-06-10T09:15:12.915Z,52.70
2019-06-10T09:20:15.833Z,52.90
2019-06-10T09:25:22.442Z,52.30
2019-06-10T09:30:25.056Z,53.10
2019-06-10T09:35:28.859Z,53.30
2019-06-10T09:41:00.329Z,53.20
2019-06-10T09:45:57.404Z,53.50
2019-06-10T09:51:02.461Z,53.40
2019-06-10T09:56:06.533Z,53.50
2019-06-10T10:01:10.256Z,53.80
2019-06-10T10:06:16.016Z,53.80
2019-06-10T10:11:23.525Z,54.00
2019-06-10T10:16:26.225Z,54.50
2019-06-10T10:21:29.993Z,54.50
2019-06-10T10:26:33.803Z,55.10
2019-06-10T10:31:37.753Z,54.60
2019-06-10T10:36:45.059Z,55.90
2019-06-10T10:41:48.334Z,55.00
2019-06-10T10:46:54.381Z,55.40
2019-06-10T10:51:57.912Z,55.10
2019-06-10T10:57:02.609Z,55.10
2019-06-10T11:02:06.932Z,55.10
2019-06-10T11:07:12.834Z,54.60
2019-06-10T11:12:16.265Z,54.90
2019-06-10T11:17:22.186Z,54.90
2019-06-10T11:22:25.780Z,55.00
2019-06-10T11:27:30.897Z,55.10
2019-06-10T11:32:35.234Z,55.00
2019-06-10T11:37:39.046Z,55.00
2019-06-10T11:42:43.667Z,55.10
2019-06-10T11:47:49.295Z,55.20
2019-06-10T11:52:57.062Z,55.20
2019-06-10T11:57:59.354Z,55.40
2019-06-10T12:03:03.659Z,55.40
2019-06-10T12:08:07.661Z,55.30
2019-06-10T12:13:13.355Z,55.30
2019-06-10T12:18:16.984Z,55.30
2019-06-10T12:23:22.138Z,55.20
2019-06-10T12:28:26.224Z,55.30
2019-06-10T12:33:33.328Z,57.60
2019-06-10T12:38:35.444Z,57.20
2019-06-10T12:43:39.942Z,57.00
2019-06-10T12:48:43.676Z,57.40
2019-06-10T12:53:47.365Z,56.40
2019-06-10T12:58:54.101Z,55.90
2019-06-10T13:03:57.563Z,55.70
2019-06-10T13:09:03.678Z,56.40
2019-06-10T13:14:09.551Z,56.00
2019-06-10T13:19:13.480Z,56.00
2019-06-10T13:24:17.388Z,55.70
2019-06-10T13:29:25.036Z,55.60
2019-06-10T13:34:29.089Z,55.40
2019-06-10T13:39:33.017Z,55.40
2019-06-10T13:44:36.777Z,55.40
2019-06-10T13:49:42.676Z,56.90
2019-06-10T13:54:46.196Z,57.60
2019-06-10T13:59:52.025Z,57.30
2019-06-10T14:04:55.974Z,57.20
2019-06-10T14:10:02.968Z,57.60
2019-06-10T14:15:08.052Z,57.50
2019-06-10T14:20:15.341Z,57.30
2019-06-10T14:25:17.284Z,57.70
2019-06-10T14:30:23.031Z,58.10
2019-06-10T14:35:27.581Z,57.90
2019-06-10T14:40:32.442Z,58.40
2019-06-10T14:45:36.597Z,59.50
2019-06-10T14:50:40.386Z,59.00
2019-06-10T14:55:44.239Z,59.20
2019-06-10T15:00:48.063Z,58.90
2019-06-10T15:11:55.121Z,59.10
2019-06-10T15:16:59.135Z,59.60
2019-06-10T15:22:06.060Z,59.70
2019-06-10T15:27:22.007Z,59.90
2019-06-10T15:32:33.471Z,59.80
2019-06-10T15:37:24.256Z,59.90
2019-06-10T15:42:28.387Z,59.80
2019-06-10T15:47:32.472Z,60.10
2019-06-10T15:52:36.389Z,60.10
2019-06-10T15:57:43.738Z,60.50
2019-06-10T16:02:45.900Z,60.30
2019-06-10T16:07:49.672Z,60.30
2019-06-10T16:12:53.648Z,60.30
2019-06-10T16:17:58.632Z,60.60
2019-06-10T16:23:03.038Z,60.10
2019-06-10T16:28:07.006Z,60.20
2019-06-10T16:33:13.101Z,60.10
2019-06-10T16:38:16.986Z,60.20
2019-06-10T16:43:24.057Z,60.30
2019-06-10T16:48:26.620Z,60.20
2019-06-10T16:53:32.334Z,60.40
2019-06-10T16:58:36.136Z,60.80
2019-06-10T17:03:42.308Z,60.70
2019-06-10T17:08:45.409Z,60.60
2019-06-10T17:13:49.274Z,61.00
2019-06-10T17:18:52.982Z,61.00
2019-06-10T17:23:56.838Z,60.80
2019-06-10T17:29:02.698Z,61.00
2019-06-10T17:34:06.143Z,61.10
2019-06-10T17:39:12.367Z,61.30
2019-06-10T17:44:15.775Z,61.10
2019-06-10T17:49:22.516Z,61.30
2019-06-10T17:54:25.646Z,61.40
2019-06-10T17:59:31.430Z,61.40
2019-06-10T18:04:55.383Z,61.60
2019-06-10T18:09:59.272Z,61.70
2019-06-10T18:15:04.279Z,61.60
2019-06-10T18:20:09.174Z,62.00
2019-06-10T18:25:13.202Z,62.90
2019-06-10T18:30:16.999Z,63.00
2019-06-10T18:35:22.420Z,63.80
2019-06-10T18:40:27.454Z,64.50
2019-06-10T18:45:36.008Z,65.00
2019-06-10T18:50:39.580Z,65.60
2019-06-10T18:55:43.764Z,66.20
2019-06-10T19:00:59.826Z,67.80
2019-06-10T19:05:53.248Z,67.30
2019-06-10T19:10:57.617Z,67.80
2019-06-10T19:16:02.339Z,68.20
2019-06-10T19:21:08.840Z,68.90
2019-06-10T19:26:13.410Z,70.60
2019-06-10T19:31:17.417Z,69.50
2019-06-10T19:36:23.165Z,69.90
2019-06-10T19:41:27.138Z,75.80
2019-06-10T19:46:33.752Z,72.60
2019-06-10T19:51:37.391Z,74.10
2019-06-10T19:56:41.677Z,72.70
2019-06-10T20:01:48.251Z,74.60
2019-06-10T20:06:53.645Z,75.70
2019-06-10T20:11:56.585Z,75.80
2019-06-10T20:17:02.939Z,76.00
2019-06-10T20:22:05.857Z,76.60
2019-06-10T20:27:10.169Z,76.50
2019-06-10T20:32:14.286Z,74.90
2019-06-10T20:37:18.072Z,78.80
2019-06-10T20:42:23.264Z,77.90
2019-06-10T20:47:27.296Z,77.50
2019-06-10T20:52:32.608Z,77.10
2019-06-10T20:57:50.074Z,78.60
2019-06-10T21:02:45.853Z,76.90
2019-06-10T21:07:51.759Z,76.40
2019-06-10T21:12:55.090Z,74.20
2019-06-10T21:17:58.897Z,76.10
2019-06-10T21:23:03.282Z,75.00
2019-06-10T21:28:07.800Z,74.80
2019-06-10T21:33:13.026Z,73.90
2019-06-10T21:38:16.888Z,75.10
2019-06-10T21:43:22.367Z,75.90
2019-06-10T21:48:26.272Z,78.20
2019-06-10T21:53:30.114Z,80.00
2019-06-10T21:58:33.900Z,80.30
2019-06-10T22:03:37.757Z,80.90
2019-06-10T22:08:44.217Z,80.60
2019-06-10T22:13:48.545Z,80.70
2019-06-10T22:18:52.913Z,80.80
2019-06-10T22:23:57.144Z,83.60
2019-06-10T22:29:01.314Z,83.20
2019-06-10T22:34:05.195Z,82.80
2019-06-10T22:39:08.918Z,80.90
2019-06-10T22:44:12.813Z,83.10
2019-06-10T22:49:16.938Z,80.00
2019-06-10T22:54:21.876Z,81.60
2019-06-10T22:59:25.554Z,82.50
2019-06-10T23:04:29.244Z,81.50
2019-06-10T23:09:32.992Z,82.50
2019-06-10T23:14:36.784Z,82.90
2019-06-10T23:19:42.788Z,82.70
2019-06-10T23:24:46.084Z,82.90
2019-06-10T23:29:52.741Z,82.90
2019-06-10T23:34:58.248Z,82.60
2019-06-10T23:40:04.022Z,83.00
2019-06-10T23:45:06.543Z,83.20
2019-06-10T23:50:12.773Z,83.10
2019-06-10T23:55:15.759Z,83.20
